Time,TemperatureF,DewpointF,PressureIn,WindDirection,WindDirectionDegrees,WindSpeedMPH,WindSpeedGustMPH,Humidity,HourlyPrecipIn,Conditions,Clouds,dailyrainin,SoftwareType,DateUTC
2013-03-22 00:00:00,27.0,22.1,29.75,West,270,11.6,16.8,82,0.00,,,0.00,WUHU21623XXSP,2013-03-22 04:00:00,
2013-03-22 00:01:00,27.0,22.1,29.75,NW,315,10.7,16.8,82,0.00,,,0.00,WUHU21623XXSP,2013-03-22 04:01:00,
2013-03-22 00:06:00,26.8,22.2,29.75,WNW,292,6.3,16.8,83,0.00,,,0.00,WUHU21623XXSP,2013-03-22 04:06:00,
2013-03-22 00:11:00,26.4,22.2,29.75,West,270,11.0,15.0,84,0.00,,,0.00,WUHU21623XXSP,2013-03-22 04:11:00,
2013-03-22 00:16:00,26.4,22.5,29.75,WNW,292,11.6,15.0,85,0.00,,,0.00,WUHU21623XXSP,2013-03-22 04:16:00,
2013-03-22 00:21:00,26.2,22.6,29.75,West,270,6.5,15.7,86,0.00,,,0.00,WUHU21623XXSP,2013-03-22 04:21:00,
2013-03-22 00:26:00,26.2,22.6,29.75,West,270,7.4,15.7,86,0.00,,,0.00,WUHU21623XXSP,2013-03-22 04:26:00,
2013-03-22 00:31:00,25.9,22.2,29.75,NW,315,11.9,12.1,86,0.00,,,0.00,WUHU21623XXSP,2013-03-22 04:31:00,
2013-03-22 00:36:00,25.7,22.3,29.75,WNW,292,6.0,12.1,87,0.00,,,0.00,WUHU21623XXSP,2013-03-22 04:36:00,
2013-03-22 00:41:00,25.7,22.6,29.75,West,270,6.7,10.3,88,0.00,,,0.00,WUHU21623XXSP,2013-03-22 04:41:00,
2013-03-22 00:46:00,25.5,22.4,29.75,West,270,3.4,10.3,88,0.00,,,0.00,WUHU21623XXSP,2013-03-22 04:46:00,
2013-03-22 00:51:00,25.5,22.4,29.75,West,270,5.6,10.1,88,0.00,,,0.00,WUHU21623XXSP,2013-03-22 04:51:00,
2013-03-22 00:56:00,25.5,22.4,29.75,WNW,292,8.3,10.1,88,0.00,,,0.00,WUHU21623XXSP,2013-03-22 04:56:00,
2013-03-22 01:01:00,25.5,22.4,29.75,West,270,4.7,9.4,88,0.00,,,0.00,WUHU21623XXSP,2013-03-22 05:01:00,
2013-03-22 01:06:00,25.3,22.3,29.75,West,270,6.9,9.2,88,0.00,,,0.00,WUHU21623XXSP,2013-03-22 05:06:00,
2013-03-22 01:11:00,25.3,22.3,29.75,West,270,3.1,7.8,88,0.00,,,0.00,WUHU21623XXSP,2013-03-22 05:11:00,
2013-03-22 01:16:00,25.3,22.3,29.76,West,270,4.3,10.1,88,0.00,,,0.00,WUHU21623XXSP,2013-03-22 05:16:00,
2013-03-22 01:21:00,25.3,22.3,29.75,West,270,7.2,11.2,88,0.00,,,0.00,WUHU21623XXSP,2013-03-22 05:21:00,
2013-03-22 01:26:00,25.3,22.5,29.75,West,270,7.6,11.2,89,0.00,,,0.00,WUHU21623XXSP,2013-03-22 05:26:00,
2013-03-22 01:31:00,25.3,22.5,29.75,West,270,6.7,9.6,89,0.00,,,0.00,WUHU21623XXSP,2013-03-22 05:31:00,
2013-03-22 01:36:00,25.2,22.4,29.75,West,270,10.7,12.1,89,0.00,,,0.00,WUHU21623XXSP,2013-03-22 05:36:00,
2013-03-22 01:42:00,25.2,22.4,29.75,West,270,5.8,12.1,89,0.00,,,0.00,WUHU21623XXSP,2013-03-22 05:42:00,
2013-03-22 01:47:00,25.2,22.4,29.75,West,270,3.8,11.6,89,0.00,,,0.00,WUHU21623XXSP,2013-03-22 05:47:00,
2013-03-22 01:52:00,25.0,22.2,29.75,WSW,247,4.9,11.6,89,0.00,,,0.00,WUHU21623XXSP,2013-03-22 05:52:00,
2013-03-22 01:57:00,25.0,22.2,29.75,West,270,3.6,11.4,89,0.00,,,0.00,WUHU21623XXSP,2013-03-22 05:57:00,
2013-03-22 02:02:00,25.0,22.2,29.75,WSW,247,6.0,10.3,89,0.00,,,0.00,WUHU21623XXSP,2013-03-22 06:02:00,
2013-03-22 02:07:00,25.0,22.2,29.75,West,270,2.2,10.3,89,0.00,,,0.00,WUHU21623XXSP,2013-03-22 06:07:00,
2013-03-22 02:12:00,25.0,22.2,29.75,West,270,5.6,9.4,89,0.00,,,0.00,WUHU21623XXSP,2013-03-22 06:12:00,
2013-03-22 02:17:00,25.0,22.2,29.75,West,270,7.2,9.4,89,0.00,,,0.00,WUHU21623XXSP,2013-03-22 06:17:00,
2013-03-22 02:22:00,25.0,22.2,29.75,West,270,2.5,8.7,89,0.00,,,0.00,WUHU21623XXSP,2013-03-22 06:22:00,
2013-03-22 02:27:00,25.0,22.2,29.75,WSW,247,0.0,7.6,89,0.00,,,0.00,WUHU21623XXSP,2013-03-22 06:27:00,
2013-03-22 02:32:00,25.0,22.2,29.75,West,270,3.8,10.3,89,0.00,,,0.00,WUHU21623XXSP,2013-03-22 06:32:00,
2013-03-22 02:37:00,25.0,22.2,29.75,West,270,3.8,10.3,89,0.00,,,0.00,WUHU21623XXSP,2013-03-22 06:37:00,
2013-03-22 02:42:00,25.0,22.2,29.75,WSW,247,8.3,13.0,89,0.00,,,0.00,WUHU21623XXSP,2013-03-22 06:42:00,
2013-03-22 02:47:00,25.0,22.2,29.75,West,270,6.7,13.0,89,0.00,,,0.00,WUHU21623XXSP,2013-03-22 06:47:00,
2013-03-22 02:52:00,25.0,22.2,29.75,West,270,3.1,14.5,89,0.00,,,0.00,WUHU21623XXSP,2013-03-22 06:52:00,
2013-03-22 02:57:00,25.0,22.2,29.75,WSW,247,4.3,14.5,89,0.00,,,0.00,WUHU21623XXSP,2013-03-22 06:57:00,
2013-03-22 03:02:00,25.0,22.2,29.75,West,270,7.2,11.2,89,0.00,,,0.00,WUHU21623XXSP,2013-03-22 07:02:00,
2013-03-22 03:07:00,24.6,21.8,29.75,West,270,7.8,10.3,89,0.00,,,0.00,WUHU21623XXSP,2013-03-22 07:07:00,
2013-03-22 03:12:00,24.6,21.8,29.75,WSW,247,7.4,11.0,89,0.00,,,0.00,WUHU21623XXSP,2013-03-22 07:12:00,
2013-03-22 03:17:00,24.8,22.0,29.75,West,270,8.3,14.1,89,0.00,,,0.00,WUHU21623XXSP,2013-03-22 07:17:00,
2013-03-22 03:22:00,25.0,22.2,29.74,West,270,8.1,14.1,89,0.00,,,0.00,WUHU21623XXSP,2013-03-22 07:22:00,
2013-03-22 03:27:00,25.0,22.2,29.75,WSW,247,6.7,11.2,89,0.00,,,0.00,WUHU21623XXSP,2013-03-22 07:27:00,
2013-03-22 03:32:00,25.0,22.2,29.75,West,270,2.0,12.3,89,0.00,,,0.00,WUHU21623XXSP,2013-03-22 07:32:00,
2013-03-22 03:38:00,25.0,22.2,29.75,West,270,13.6,13.6,89,0.00,,,0.00,WUHU21623XXSP,2013-03-22 07:38:00,
2013-03-22 03:43:00,25.0,22.2,29.75,WSW,247,2.9,13.9,89,0.00,,,0.00,WUHU21623XXSP,2013-03-22 07:43:00,
2013-03-22 03:48:00,25.0,22.2,29.75,WNW,292,7.4,13.9,89,0.00,,,0.00,WUHU21623XXSP,2013-03-22 07:48:00,
2013-03-22 03:53:00,25.0,22.2,29.74,West,270,5.4,12.1,89,0.00,,,0.00,WUHU21623XXSP,2013-03-22 07:53:00,
2013-03-22 03:58:00,24.8,22.0,29.74,WSW,247,14.8,14.8,89,0.00,,,0.00,WUHU21623XXSP,2013-03-22 07:58:00,
2013-03-22 04:03:00,25.0,22.2,29.74,West,270,7.6,14.8,89,0.00,,,0.00,WUHU21623XXSP,2013-03-22 08:03:00,
2013-03-22 04:10:00,25.0,22.2,29.74,West,270,7.6,7.6,89,0.00,,,0.00,WUHU21623XXSP,2013-03-22 08:10:00,
2013-03-22 04:15:00,24.6,21.8,29.74,West,270,9.8,14.1,89,0.00,,,0.00,WUHU21623XXSP,2013-03-22 08:15:00,
2013-03-22 04:20:00,24.6,21.8,29.74,West,270,2.2,14.1,89,0.00,,,0.00,WUHU21623XXSP,2013-03-22 08:20:00,
2013-03-22 04:25:00,25.0,22.2,29.74,West,270,8.9,14.1,89,0.00,,,0.00,WUHU21623XXSP,2013-03-22 08:25:00,
2013-03-22 04:30:00,25.0,22.2,29.74,WSW,247,8.5,12.1,89,0.00,,,0.00,WUHU21623XXSP,2013-03-22 08:30:00,
2013-03-22 04:35:00,25.2,22.4,29.75,West,270,15.7,15.7,89,0.00,,,0.00,WUHU21623XXSP,2013-03-22 08:35:00,
2013-03-22 04:40:00,25.3,22.5,29.75,WSW,247,11.0,15.7,89,0.00,,,0.00,WUHU21623XXSP,2013-03-22 08:40:00,
2013-03-22 04:45:00,25.5,22.7,29.74,WSW,247,10.1,13.6,88,0.00,,,0.00,WUHU21623XXSP,2013-03-22 08:45:00,
2013-03-22 04:50:00,25.5,22.4,29.74,WSW,247,11.0,15.2,88,0.00,,,0.00,WUHU21623XXSP,2013-03-22 08:50:00,
2013-03-22 04:55:00,25.5,22.4,29.74,West,270,4.7,15.2,88,0.00,,,0.00,WUHU21623XXSP,2013-03-22 08:55:00,
2013-03-22 05:00:00,25.5,22.4,29.74,West,270,7.4,12.1,88,0.00,,,0.00,WUHU21623XXSP,2013-03-22 09:00:00,
2013-03-22 05:05:00,25.5,22.4,29.74,West,270,7.4,11.0,88,0.00,,,0.00,WUHU21623XXSP,2013-03-22 09:05:00,
2013-03-22 05:10:00,25.5,22.4,29.74,WNW,292,18.1,18.1,88,0.00,,,0.00,WUHU21623XXSP,2013-03-22 09:10:00,
2013-03-22 05:15:00,25.5,22.4,29.74,West,270,4.0,18.1,88,0.00,,,0.00,WUHU21623XXSP,2013-03-22 09:15:00,
2013-03-22 05:20:00,25.5,22.4,29.74,West,270,8.5,13.9,88,0.00,,,0.00,WUHU21623XXSP,2013-03-22 09:20:00,
2013-03-22 05:25:00,25.5,22.4,29.74,West,270,4.3,13.6,88,0.00,,,0.00,WUHU21623XXSP,2013-03-22 09:25:00,
2013-03-22 05:30:00,25.5,22.4,29.74,WSW,247,8.3,12.8,88,0.00,,,0.00,WUHU21623XXSP,2013-03-22 09:30:00,
2013-03-22 05:35:00,25.5,22.4,29.74,WNW,292,7.8,12.8,88,0.00,,,0.00,WUHU21623XXSP,2013-03-22 09:35:00,
2013-03-22 05:40:00,25.5,22.4,29.74,WSW,247,4.9,12.3,88,0.00,,,0.00,WUHU21623XXSP,2013-03-22 09:40:00,
2013-03-22 05:45:00,25.5,22.4,29.74,West,270,7.8,13.2,88,0.00,,,0.00,WUHU21623XXSP,2013-03-22 09:45:00,
2013-03-22 05:51:00,25.5,22.4,29.74,West,270,11.0,13.2,88,0.00,,,0.00,WUHU21623XXSP,2013-03-22 09:51:00,
2013-03-22 05:56:00,25.5,22.4,29.74,WSW,247,11.9,13.0,88,0.00,,,0.00,WUHU21623XXSP,2013-03-22 09:56:00,
2013-03-22 06:01:00,25.7,22.6,29.74,West,270,4.7,11.9,88,0.00,,,0.00,WUHU21623XXSP,2013-03-22 10:01:00,
2013-03-22 06:10:00,25.7,22.6,29.75,West,270,9.4,9.4,88,0.00,,,0.00,WUHU21623XXSP,2013-03-22 10:10:00,
2013-03-22 06:15:00,25.9,22.8,29.75,WNW,292,8.9,14.3,88,0.00,,,0.00,WUHU21623XXSP,2013-03-22 10:15:00,
2013-03-22 06:20:00,25.9,22.8,29.75,West,270,8.3,17.2,88,0.00,,,0.00,WUHU21623XXSP,2013-03-22 10:20:00,
2013-03-22 06:25:00,25.9,22.8,29.75,WNW,292,10.1,17.2,88,0.00,,,0.00,WUHU21623XXSP,2013-03-22 10:25:00,
2013-03-22 06:30:00,25.7,22.6,29.75,West,270,6.9,15.9,88,0.00,,,0.00,WUHU21623XXSP,2013-03-22 10:30:00,
2013-03-22 06:35:00,25.7,22.9,29.75,West,270,7.2,15.2,89,0.00,,,0.00,WUHU21623XXSP,2013-03-22 10:35:00,
2013-03-22 06:40:00,25.5,22.7,29.75,West,270,5.8,14.8,89,0.00,,,0.00,WUHU21623XXSP,2013-03-22 10:40:00,
2013-03-22 06:45:00,25.7,22.6,29.75,WSW,247,4.9,14.8,88,0.00,,,0.00,WUHU21623XXSP,2013-03-22 10:45:00,
2013-03-22 06:50:00,25.7,22.6,29.75,WNW,292,9.2,14.8,88,0.00,,,0.00,WUHU21623XXSP,2013-03-22 10:50:00,
2013-03-22 06:55:00,25.9,22.8,29.76,West,270,10.1,16.8,88,0.00,,,0.00,WUHU21623XXSP,2013-03-22 10:55:00,
2013-03-22 07:00:00,25.9,22.8,29.76,WSW,247,13.9,17.2,88,0.00,,,0.00,WUHU21623XXSP,2013-03-22 11:00:00,
2013-03-22 07:05:00,25.9,22.8,29.75,West,270,5.8,17.2,88,0.00,,,0.00,WUHU21623XXSP,2013-03-22 11:05:00,
2013-03-22 07:10:00,25.9,22.8,29.76,WSW,247,12.8,17.7,88,0.00,,,0.00,WUHU21623XXSP,2013-03-22 11:10:00,
2013-03-22 07:15:00,25.7,22.6,29.76,West,270,9.4,17.7,88,0.00,,,0.00,WUHU21623XXSP,2013-03-22 11:15:00,
2013-03-22 07:20:00,25.7,22.6,29.76,West,270,11.4,13.9,88,0.00,,,0.00,WUHU21623XXSP,2013-03-22 11:20:00,
2013-03-22 07:25:00,25.7,22.9,29.76,West,270,7.4,13.9,89,0.00,,,0.00,WUHU21623XXSP,2013-03-22 11:25:00,
2013-03-22 07:30:00,25.7,22.9,29.77,West,270,4.0,12.3,89,0.00,,,0.00,WUHU21623XXSP,2013-03-22 11:30:00,
2013-03-22 07:35:00,25.5,22.7,29.77,West,270,11.6,16.6,89,0.00,,,0.00,WUHU21623XXSP,2013-03-22 11:35:00,
2013-03-22 07:40:00,25.7,22.7,29.78,West,270,5.6,19.5,89,0.00,,,0.00,WUHU21623XXSP,2013-03-22 11:40:00,
2013-03-22 07:45:00,25.5,22.7,29.78,West,270,10.1,19.5,89,0.00,,,0.00,WUHU21623XXSP,2013-03-22 11:45:00,
2013-03-22 07:50:00,25.5,23.0,29.78,West,270,6.0,18.6,90,0.00,,,0.00,WUHU21623XXSP,2013-03-22 11:50:00,
2013-03-22 07:55:00,25.5,23.0,29.78,NW,315,6.0,18.6,90,0.00,,,0.00,WUHU21623XXSP,2013-03-22 11:55:00,
2013-03-22 08:00:00,25.7,23.2,29.78,West,270,5.4,14.1,90,0.00,,,0.00,WUHU21623XXSP,2013-03-22 12:00:00,
2013-03-22 08:05:00,25.7,23.2,29.78,West,270,6.7,14.1,90,0.00,,,0.00,WUHU21623XXSP,2013-03-22 12:05:00,
2013-03-22 08:10:00,25.9,23.4,29.78,West,270,3.6,16.3,90,0.00,,,0.00,WUHU21623XXSP,2013-03-22 12:10:00,
2013-03-22 08:15:00,25.9,23.4,29.78,West,270,10.3,16.3,90,0.00,,,0.00,WUHU21623XXSP,2013-03-22 12:15:00,
2013-03-22 08:20:00,25.9,23.1,29.78,WSW,247,3.4,15.9,89,0.00,,,0.00,WUHU21623XXSP,2013-03-22 12:20:00,
2013-03-22 08:25:00,25.9,23.4,29.78,WNW,292,11.4,15.9,90,0.00,,,0.00,WUHU21623XXSP,2013-03-22 12:25:00,
2013-03-22 08:30:00,25.9,23.4,29.78,West,270,6.7,13.6,90,0.00,,,0.00,WUHU21623XXSP,2013-03-22 12:30:00,
2013-03-22 08:35:00,25.9,23.4,29.78,West,270,6.3,13.6,90,0.00,,,0.00,WUHU21623XXSP,2013-03-22 12:35:00,
2013-03-22 08:40:00,25.9,23.4,29.78,WSW,247,10.3,13.0,90,0.00,,,0.00,WUHU21623XXSP,2013-03-22 12:40:00,
2013-03-22 08:45:00,25.9,23.4,29.79,West,270,6.9,13.6,90,0.00,,,0.00,WUHU21623XXSP,2013-03-22 12:45:00,
2013-03-22 08:50:00,26.2,23.7,29.79,WSW,247,7.4,18.3,90,0.00,,,0.00,WUHU21623XXSP,2013-03-22 12:50:00,
2013-03-22 08:55:00,26.4,23.9,29.79,WSW,247,9.8,18.3,90,0.00,,,0.00,WUHU21623XXSP,2013-03-22 12:55:00,
2013-03-22 09:00:00,26.6,24.1,29.79,West,270,8.9,19.5,90,0.00,,,0.00,WUHU21623XXSP,2013-03-22 13:00:00,
2013-03-22 09:06:00,27.0,24.4,29.79,West,270,13.0,19.5,90,0.00,,,0.00,WUHU21623XXSP,2013-03-22 13:06:00,
2013-03-22 09:11:00,27.0,24.2,29.79,West,270,13.2,18.8,89,0.00,,,0.00,WUHU21623XXSP,2013-03-22 13:11:00,
2013-03-22 09:16:00,27.1,24.3,29.79,WSW,247,7.8,18.8,89,0.00,,,0.00,WUHU21623XXSP,2013-03-22 13:16:00,
2013-03-22 09:21:00,27.1,24.0,29.79,WSW,247,4.5,12.8,88,0.00,,,0.00,WUHU21623XXSP,2013-03-22 13:21:00,
2013-03-22 09:26:00,27.0,23.9,29.79,West,270,8.1,12.8,88,0.00,,,0.00,WUHU21623XXSP,2013-03-22 13:26:00,
2013-03-22 09:31:00,27.0,23.9,29.80,West,270,7.4,16.1,88,0.00,,,0.00,WUHU21623XXSP,2013-03-22 13:31:00,
2013-03-22 09:36:00,27.0,23.9,29.80,West,270,7.8,16.1,88,0.00,,,0.00,WUHU21623XXSP,2013-03-22 13:36:00,
2013-03-22 09:41:00,27.1,24.0,29.80,West,270,8.9,11.6,88,0.00,,,0.00,WUHU21623XXSP,2013-03-22 13:41:00,
2013-03-22 09:46:00,27.1,24.0,29.80,West,270,7.6,15.2,88,0.00,,,0.00,WUHU21623XXSP,2013-03-22 13:46:00,
2013-03-22 09:51:00,27.3,24.2,29.81,WNW,292,7.6,15.2,88,0.00,,,0.00,WUHU21623XXSP,2013-03-22 13:51:00,
2013-03-22 09:56:00,27.5,24.7,29.81,West,270,7.6,11.6,89,0.00,,,0.00,WUHU21623XXSP,2013-03-22 13:56:00,
2013-03-22 10:01:00,27.3,24.2,29.81,West,270,15.0,15.0,88,0.00,,,0.00,WUHU21623XXSP,2013-03-22 14:01:00,
2013-03-22 10:06:00,27.5,24.7,29.81,West,270,2.7,16.8,89,0.00,,,0.00,WUHU21623XXSP,2013-03-22 14:06:00,
2013-03-22 10:11:00,27.7,24.9,29.81,WSW,247,7.8,15.2,89,0.00,,,0.00,WUHU21623XXSP,2013-03-22 14:11:00,
2013-03-22 10:16:00,27.7,24.6,29.81,WSW,247,6.3,11.6,88,0.00,,,0.00,WUHU21623XXSP,2013-03-22 14:16:00,
2013-03-22 10:22:00,28.0,24.7,29.81,WNW,292,13.4,13.4,87,0.00,,,0.00,WUHU21623XXSP,2013-03-22 14:22:00,
2013-03-22 10:27:00,28.0,24.7,29.81,West,270,6.5,13.4,87,0.00,,,0.00,WUHU21623XXSP,2013-03-22 14:27:00,
2013-03-22 10:32:00,28.2,24.5,29.81,West,270,9.6,10.5,86,0.00,,,0.00,WUHU21623XXSP,2013-03-22 14:32:00,
2013-03-22 10:37:00,28.6,24.6,29.81,WNW,292,8.1,14.5,85,0.00,,,0.00,WUHU21623XXSP,2013-03-22 14:37:00,
2013-03-22 10:42:00,28.6,24.3,29.81,WNW,292,7.4,14.5,84,0.00,,,0.00,WUHU21623XXSP,2013-03-22 14:42:00,
2013-03-22 10:47:00,28.8,24.2,29.82,WNW,292,6.3,13.4,83,0.00,,,0.00,WUHU21623XXSP,2013-03-22 14:47:00,
2013-03-22 10:52:00,28.8,23.6,29.81,WSW,247,9.4,14.1,81,0.00,,,0.00,WUHU21623XXSP,2013-03-22 14:52:00,
2013-03-22 10:57:00,28.9,23.5,29.82,WNW,292,12.5,15.2,80,0.00,,,0.00,WUHU21623XXSP,2013-03-22 14:57:00,
2013-03-22 11:02:00,29.1,23.7,29.82,West,270,6.9,15.2,80,0.00,,,0.00,WUHU21623XXSP,2013-03-22 15:02:00,
2013-03-22 11:07:00,29.5,24.1,29.82,West,270,2.5,12.3,80,0.00,,,0.00,WUHU21623XXSP,2013-03-22 15:07:00,
2013-03-22 11:12:00,29.5,24.1,29.82,West,270,10.7,14.5,80,0.00,,,0.00,WUHU21623XXSP,2013-03-22 15:12:00,
2013-03-22 11:17:00,29.3,24.2,29.82,West,270,6.7,14.5,81,0.00,,,0.00,WUHU21623XXSP,2013-03-22 15:17:00,
2013-03-22 11:22:00,29.1,24.3,29.82,West,270,6.7,15.4,82,0.00,,,0.00,WUHU21623XXSP,2013-03-22 15:22:00,
2013-03-22 11:27:00,29.3,24.5,29.82,WNW,292,6.9,15.4,82,0.00,,,0.00,WUHU21623XXSP,2013-03-22 15:27:00,
2013-03-22 11:32:00,29.3,24.5,29.82,WNW,292,11.9,13.9,82,0.00,,,0.00,WUHU21623XXSP,2013-03-22 15:32:00,
2013-03-22 11:37:00,29.1,24.3,29.82,WSW,247,9.6,13.9,82,0.00,,,0.00,WUHU21623XXSP,2013-03-22 15:37:00,
2013-03-22 11:42:00,29.5,24.7,29.82,West,270,9.2,14.1,82,0.00,,,0.00,WUHU21623XXSP,2013-03-22 15:42:00,
2013-03-22 11:47:00,29.8,25.0,29.82,West,270,7.2,14.1,82,0.00,,,0.00,WUHU21623XXSP,2013-03-22 15:47:00,
2013-03-22 11:52:00,29.8,25.0,29.82,West,270,11.4,11.4,82,0.00,,,0.00,WUHU21623XXSP,2013-03-22 15:52:00,
2013-03-22 11:57:00,30.0,25.2,29.82,WNW,292,9.8,11.4,82,0.00,,,0.00,WUHU21623XXSP,2013-03-22 15:57:00,
2013-03-22 12:02:00,30.4,25.3,29.82,WSW,247,2.0,10.1,81,0.00,,,0.00,WUHU21623XXSP,2013-03-22 16:02:00,
2013-03-22 12:07:00,30.6,25.4,29.82,WNW,292,5.8,10.1,81,0.00,,,0.00,WUHU21623XXSP,2013-03-22 16:07:00,
2013-03-22 12:12:00,30.7,25.6,29.82,West,270,5.8,11.6,81,0.00,,,0.00,WUHU21623XXSP,2013-03-22 16:12:00,
2013-03-22 12:17:00,30.7,25.3,29.82,WSW,247,8.9,14.8,80,0.00,,,0.00,WUHU21623XXSP,2013-03-22 16:17:00,
2013-03-22 12:22:00,30.7,25.3,29.82,WNW,292,13.6,14.8,80,0.00,,,0.00,WUHU21623XXSP,2013-03-22 16:22:00,
2013-03-22 12:27:00,30.7,25.3,29.83,West,270,5.4,13.6,80,0.00,,,0.00,WUHU21623XXSP,2013-03-22 16:27:00,
2013-03-22 12:33:00,30.7,25.3,29.83,West,270,5.4,11.9,80,0.00,,,0.00,WUHU21623XXSP,2013-03-22 16:33:00,
2013-03-22 12:38:00,30.9,25.5,29.83,WSW,247,5.4,11.9,80,0.00,,,0.00,WUHU21623XXSP,2013-03-22 16:38:00,
2013-03-22 12:43:00,30.9,25.5,29.83,WSW,247,7.8,13.0,80,0.00,,,0.00,WUHU21623XXSP,2013-03-22 16:43:00,
2013-03-22 12:48:00,30.7,25.3,29.83,WNW,292,6.7,13.0,80,0.00,,,0.00,WUHU21623XXSP,2013-03-22 16:48:00,
2013-03-22 12:53:00,30.6,25.4,29.83,WSW,247,7.8,12.8,81,0.00,,,0.00,WUHU21623XXSP,2013-03-22 16:53:00,
2013-03-22 12:58:00,30.7,25.6,29.83,West,270,3.4,11.6,81,0.00,,,0.00,WUHU21623XXSP,2013-03-22 16:58:00,
2013-03-22 13:03:00,30.7,25.6,29.83,West,270,5.8,11.6,81,0.00,,,0.00,WUHU21623XXSP,2013-03-22 17:03:00,
2013-03-22 13:08:00,31.3,25.9,29.83,WSW,247,5.4,13.2,80,0.00,,,0.00,WUHU21623XXSP,2013-03-22 17:08:00,
2013-03-22 13:13:00,31.5,26.1,29.83,SW,225,5.4,13.2,80,0.00,,,0.00,WUHU21623XXSP,2013-03-22 17:13:00,
2013-03-22 13:18:00,31.6,26.2,29.83,West,270,3.6,12.1,80,0.00,,,0.00,WUHU21623XXSP,2013-03-22 17:18:00,
2013-03-22 13:23:00,32.0,26.6,29.83,WSW,247,3.6,11.4,80,0.00,,,0.00,WUHU21623XXSP,2013-03-22 17:23:00,
2013-03-22 13:28:00,31.8,26.1,29.83,SW,225,11.2,11.4,79,0.00,,,0.00,WUHU21623XXSP,2013-03-22 17:28:00,
2013-03-22 13:33:00,31.8,26.1,29.83,WSW,247,13.2,16.1,79,0.00,,,0.00,WUHU21623XXSP,2013-03-22 17:33:00,
2013-03-22 13:38:00,31.8,26.1,29.83,SW,225,12.1,16.1,79,0.00,,,0.00,WUHU21623XXSP,2013-03-22 17:38:00,
2013-03-22 13:43:00,31.6,25.9,29.83,WSW,247,9.8,16.1,79,0.00,,,0.00,WUHU21623XXSP,2013-03-22 17:43:00,
2013-03-22 13:48:00,31.6,25.9,29.83,WSW,247,6.0,14.3,79,0.00,,,0.00,WUHU21623XXSP,2013-03-22 17:48:00,
2013-03-22 13:53:00,32.2,26.4,29.83,West,270,4.0,14.3,79,0.00,,,0.00,WUHU21623XXSP,2013-03-22 17:53:00,
2013-03-22 13:58:00,32.2,26.4,29.83,West,270,3.1,16.6,79,0.00,,,0.00,WUHU21623XXSP,2013-03-22 17:58:00,
2013-03-22 14:03:00,32.4,26.3,29.83,West,270,2.5,16.6,78,0.00,,,0.00,WUHU21623XXSP,2013-03-22 18:03:00,
2013-03-22 14:08:00,32.4,26.6,29.83,West,270,6.9,12.3,79,0.00,,,0.00,WUHU21623XXSP,2013-03-22 18:08:00,
2013-03-22 14:13:00,32.2,26.4,29.83,WSW,247,15.4,15.4,79,0.02,,,0.02,WUHU21623XXSP,2013-03-22 18:13:00,
2013-03-22 14:18:00,32.2,26.4,29.83,West,270,3.8,15.4,79,0.02,,,0.02,WUHU21623XXSP,2013-03-22 18:18:00,
2013-03-22 14:23:00,32.2,26.4,29.83,West,270,10.3,13.4,79,0.02,,,0.02,WUHU21623XXSP,2013-03-22 18:23:00,
2013-03-22 14:28:00,32.2,26.4,29.83,West,270,5.4,14.5,79,0.02,,,0.02,WUHU21623XXSP,2013-03-22 18:28:00,
2013-03-22 14:33:00,32.7,26.9,29.83,SW,225,6.3,14.5,79,0.02,,,0.02,WUHU21623XXSP,2013-03-22 18:33:00,
2013-03-22 14:38:00,33.1,26.9,29.83,WSW,247,13.6,13.6,78,0.02,,,0.02,WUHU21623XXSP,2013-03-22 18:38:00,
2013-03-22 14:43:00,32.9,26.4,29.83,WSW,247,15.9,15.9,77,0.02,,,0.02,WUHU21623XXSP,2013-03-22 18:43:00,
2013-03-22 14:48:00,32.7,26.0,29.83,WSW,247,9.2,15.9,76,0.02,,,0.02,WUHU21623XXSP,2013-03-22 18:48:00,
2013-03-22 14:53:00,32.4,25.6,29.83,West,270,4.3,15.7,76,0.02,,,0.02,WUHU21623XXSP,2013-03-22 18:53:00,
2013-03-22 14:58:00,32.2,25.5,29.83,West,270,4.9,15.9,76,0.02,,,0.02,WUHU21623XXSP,2013-03-22 18:58:00,
2013-03-22 15:03:00,32.2,25.5,29.83,West,270,6.0,15.9,76,0.02,,,0.02,WUHU21623XXSP,2013-03-22 19:03:00,
2013-03-22 15:08:00,32.4,25.6,29.83,West,270,5.4,17.0,76,0.00,,,0.02,WUHU21623XXSP,2013-03-22 19:08:00,
2013-03-22 15:13:00,32.7,26.0,29.83,WSW,247,11.6,18.1,76,0.02,,,0.04,WUHU21623XXSP,2013-03-22 19:13:00,
2013-03-22 15:18:00,32.5,25.5,29.83,West,270,5.8,18.1,75,0.02,,,0.04,WUHU21623XXSP,2013-03-22 19:18:00,
2013-03-22 15:23:00,32.5,25.5,29.83,SW,225,4.9,13.6,75,0.02,,,0.04,WUHU21623XXSP,2013-03-22 19:23:00,
2013-03-22 15:28:00,32.7,25.5,29.83,WSW,247,6.3,10.3,75,0.02,,,0.04,WUHU21623XXSP,2013-03-22 19:28:00,
2013-03-22 15:33:00,32.7,25.6,29.83,WSW,247,7.6,13.2,75,0.02,,,0.04,WUHU21623XXSP,2013-03-22 19:33:00,
2013-03-22 15:38:00,32.7,25.6,29.83,SW,225,11.2,13.2,75,0.02,,,0.04,WUHU21623XXSP,2013-03-22 19:38:00,
2013-03-22 15:43:00,32.9,25.5,29.83,WSW,247,7.8,12.5,74,0.02,,,0.04,WUHU21623XXSP,2013-03-22 19:43:00,
2013-03-22 15:48:00,32.9,25.5,29.83,West,270,4.9,12.3,74,0.02,,,0.04,WUHU21623XXSP,2013-03-22 19:48:00,
2013-03-22 15:53:00,33.1,25.6,29.83,WSW,247,6.5,11.4,74,0.02,,,0.04,WUHU21623XXSP,2013-03-22 19:53:00,
2013-03-22 15:58:00,33.4,25.6,29.83,West,270,11.9,16.8,73,0.02,,,0.04,WUHU21623XXSP,2013-03-22 19:58:00,
2013-03-22 16:03:00,33.3,25.1,29.83,West,270,6.3,16.8,72,0.02,,,0.04,WUHU21623XXSP,2013-03-22 20:03:00,
2013-03-22 16:08:00,33.1,24.7,29.83,West,270,6.5,14.1,71,0.00,,,0.04,WUHU21623XXSP,2013-03-22 20:08:00,
2013-03-22 16:13:00,33.4,25.3,29.83,West,270,6.3,15.0,72,0.00,,,0.04,WUHU21623XXSP,2013-03-22 20:13:00,
2013-03-22 16:18:00,33.3,24.8,29.83,West,270,6.9,15.2,71,0.00,,,0.04,WUHU21623XXSP,2013-03-22 20:18:00,
2013-03-22 16:23:00,33.4,25.0,29.83,West,270,7.8,15.2,71,0.00,,,0.04,WUHU21623XXSP,2013-03-22 20:23:00,
2013-03-22 16:28:00,33.4,24.7,29.84,West,270,7.6,16.3,70,0.00,,,0.04,WUHU21623XXSP,2013-03-22 20:28:00,
2013-03-22 16:34:00,33.4,25.0,29.84,West,270,8.1,17.0,71,0.00,,,0.04,WUHU21623XXSP,2013-03-22 20:34:00,
2013-03-22 16:39:00,33.1,24.5,29.84,West,270,7.8,17.0,70,0.00,,,0.04,WUHU21623XXSP,2013-03-22 20:39:00,
2013-03-22 16:44:00,33.1,24.7,29.84,West,270,5.8,14.5,71,0.00,,,0.04,WUHU21623XXSP,2013-03-22 20:44:00,
2013-03-22 16:49:00,33.3,24.8,29.84,West,270,3.1,10.5,71,0.00,,,0.04,WUHU21623XXSP,2013-03-22 20:49:00,
2013-03-22 16:54:00,33.3,25.1,29.84,West,270,6.5,14.8,72,0.00,,,0.04,WUHU21623XXSP,2013-03-22 20:54:00,
2013-03-22 16:59:00,33.1,25.0,29.84,West,270,6.9,16.3,72,0.00,,,0.04,WUHU21623XXSP,2013-03-22 20:59:00,
2013-03-22 17:04:00,33.1,24.7,29.84,West,270,13.0,20.6,71,0.00,,,0.04,WUHU21623XXSP,2013-03-22 21:04:00,
2013-03-22 17:09:00,32.9,24.8,29.84,West,270,8.5,20.6,72,0.00,,,0.04,WUHU21623XXSP,2013-03-22 21:09:00,
2013-03-22 17:14:00,32.9,24.8,29.84,WNW,292,10.1,15.4,72,0.00,,,0.04,WUHU21623XXSP,2013-03-22 21:14:00,
2013-03-22 17:19:00,32.7,24.7,29.85,WSW,247,12.8,15.4,72,0.00,,,0.04,WUHU21623XXSP,2013-03-22 21:19:00,
2013-03-22 17:24:00,32.7,24.7,29.85,West,270,2.0,15.2,72,0.00,,,0.04,WUHU21623XXSP,2013-03-22 21:24:00,
2013-03-22 17:29:00,32.7,24.7,29.85,West,270,3.6,11.4,72,0.00,,,0.04,WUHU21623XXSP,2013-03-22 21:29:00,
2013-03-22 17:34:00,32.5,24.8,29.85,West,270,12.3,16.3,73,0.00,,,0.04,WUHU21623XXSP,2013-03-22 21:34:00,
2013-03-22 17:39:00,32.4,24.7,29.85,WSW,247,12.1,20.4,73,0.00,,,0.04,WUHU21623XXSP,2013-03-22 21:39:00,
2013-03-22 17:44:00,32.2,24.5,29.85,WNW,292,7.8,20.4,73,0.00,,,0.04,WUHU21623XXSP,2013-03-22 21:44:00,
2013-03-22 17:49:00,32.2,24.8,29.86,West,270,4.5,15.9,74,0.00,,,0.04,WUHU21623XXSP,2013-03-22 21:49:00,
2013-03-22 17:54:00,32.2,24.8,29.86,NW,315,10.3,15.2,74,0.00,,,0.04,WUHU21623XXSP,2013-03-22 21:54:00,
2013-03-22 17:59:00,32.2,24.5,29.86,WSW,247,7.8,16.8,73,0.00,,,0.04,WUHU21623XXSP,2013-03-22 21:59:00,
2013-03-22 18:04:00,31.8,24.5,29.86,West,270,8.7,16.8,74,0.00,,,0.04,WUHU21623XXSP,2013-03-22 22:04:00,
2013-03-22 18:09:00,31.8,24.5,29.86,West,270,11.9,17.7,74,0.00,,,0.04,WUHU21623XXSP,2013-03-22 22:09:00,
2013-03-22 18:14:00,31.8,24.2,29.86,West,270,11.4,18.8,73,0.00,,,0.04,WUHU21623XXSP,2013-03-22 22:14:00,
2013-03-22 18:19:00,31.8,24.5,29.87,West,270,11.4,18.8,74,0.00,,,0.04,WUHU21623XXSP,2013-03-22 22:19:00,
2013-03-22 18:24:00,31.8,24.5,29.87,WSW,247,17.9,17.9,74,0.00,,,0.04,WUHU21623XXSP,2013-03-22 22:24:00,
2013-03-22 18:29:00,31.6,24.3,29.87,West,270,13.6,17.9,74,0.00,,,0.04,WUHU21623XXSP,2013-03-22 22:29:00,
2013-03-22 18:34:00,31.5,24.4,29.87,West,270,6.5,17.2,75,0.00,,,0.04,WUHU21623XXSP,2013-03-22 22:34:00,
2013-03-22 18:39:00,31.3,24.6,29.87,WSW,247,8.7,18.6,76,0.00,,,0.04,WUHU21623XXSP,2013-03-22 22:39:00,
2013-03-22 18:44:00,30.9,24.9,29.88,West,270,7.8,18.6,78,0.00,,,0.04,WUHU21623XXSP,2013-03-22 22:44:00,
2013-03-22 18:49:00,30.7,24.7,29.88,West,270,0.0,14.8,78,0.00,,,0.04,WUHU21623XXSP,2013-03-22 22:49:00,
2013-03-22 18:54:00,30.7,24.7,29.88,WSW,247,9.4,14.8,78,0.00,,,0.04,WUHU21623XXSP,2013-03-22 22:54:00,
2013-03-22 18:59:00,30.9,24.9,29.88,West,270,10.1,14.8,78,0.00,,,0.04,WUHU21623XXSP,2013-03-22 22:59:00,
2013-03-22 19:04:00,30.9,24.9,29.88,WSW,247,5.4,11.4,78,0.00,,,0.04,WUHU21623XXSP,2013-03-22 23:04:00,
2013-03-22 19:09:00,30.9,24.9,29.88,West,270,4.0,11.0,78,0.00,,,0.04,WUHU21623XXSP,2013-03-22 23:09:00,
2013-03-22 19:14:00,30.7,25.0,29.89,West,270,7.6,13.0,79,0.00,,,0.04,WUHU21623XXSP,2013-03-22 23:14:00,
2013-03-22 19:19:00,30.7,25.3,29.89,West,270,7.6,13.0,80,0.00,,,0.04,WUHU21623XXSP,2013-03-22 23:19:00,
2013-03-22 19:24:00,30.6,25.4,29.89,WSW,247,6.0,13.9,81,0.00,,,0.04,WUHU21623XXSP,2013-03-22 23:24:00,
2013-03-22 19:29:00,30.6,25.7,29.89,West,270,9.6,13.9,82,0.00,,,0.04,WUHU21623XXSP,2013-03-22 23:29:00,
2013-03-22 19:34:00,30.4,25.8,29.89,WSW,247,5.8,12.5,83,0.00,,,0.04,WUHU21623XXSP,2013-03-22 23:34:00,
2013-03-22 19:39:00,30.4,25.8,29.89,West,270,10.7,11.9,83,0.00,,,0.04,WUHU21623XXSP,2013-03-22 23:39:00,
2013-03-22 19:44:00,30.4,25.8,29.90,SW,225,13.6,13.6,83,0.00,,,0.04,WUHU21623XXSP,2013-03-22 23:44:00,
2013-03-22 19:49:00,30.0,25.8,29.90,West,270,4.9,13.6,84,0.00,,,0.04,WUHU21623XXSP,2013-03-22 23:49:00,
2013-03-22 19:54:00,30.0,25.8,29.90,West,270,7.4,11.4,84,0.00,,,0.04,WUHU21623XXSP,2013-03-22 23:54:00,
2013-03-22 19:59:00,30.0,26.1,29.90,WSW,247,2.0,12.1,85,0.00,,,0.04,WUHU21623XXSP,2013-03-22 23:59:00,
2013-03-22 20:04:00,29.8,25.9,29.90,WSW,247,0.0,12.1,85,0.00,,,0.04,WUHU21623XXSP,2013-03-23 00:04:00,
2013-03-22 20:09:00,29.8,25.9,29.90,West,270,8.9,8.9,85,0.00,,,0.04,WUHU21623XXSP,2013-03-23 00:09:00,
2013-03-22 20:14:00,29.8,26.2,29.91,WSW,247,5.1,8.9,86,0.00,,,0.04,WUHU21623XXSP,2013-03-23 00:14:00,
2013-03-22 20:19:00,29.8,26.2,29.91,WSW,247,6.5,8.9,86,0.00,,,0.04,WUHU21623XXSP,2013-03-23 00:19:00,
2013-03-22 20:25:00,30.0,26.3,29.91,WNW,292,7.6,11.9,86,0.00,,,0.04,WUHU21623XXSP,2013-03-23 00:25:00,
2013-03-22 20:30:00,30.0,26.3,29.91,West,270,7.2,18.1,86,0.00,,,0.04,WUHU21623XXSP,2013-03-23 00:30:00,
2013-03-22 20:35:00,30.2,26.2,29.91,West,270,4.9,18.1,85,0.00,,,0.04,WUHU21623XXSP,2013-03-23 00:35:00,
2013-03-22 20:40:00,30.2,26.0,29.91,West,270,7.4,16.3,84,0.00,,,0.04,WUHU21623XXSP,2013-03-23 00:40:00,
2013-03-22 20:45:00,30.0,25.8,29.91,WNW,292,5.8,15.9,84,0.00,,,0.04,WUHU21623XXSP,2013-03-23 00:45:00,
2013-03-22 20:50:00,30.0,25.8,29.91,West,270,9.6,16.3,84,0.00,,,0.04,WUHU21623XXSP,2013-03-23 00:50:00,
2013-03-22 20:55:00,30.0,25.8,29.92,WNW,292,3.8,16.3,84,0.00,,,0.04,WUHU21623XXSP,2013-03-23 00:55:00,
2013-03-22 21:00:00,30.0,25.8,29.92,WNW,292,11.2,14.8,84,0.00,,,0.04,WUHU21623XXSP,2013-03-23 01:00:00,
2013-03-22 21:05:00,30.0,25.5,29.92,WSW,247,6.9,12.3,83,0.00,,,0.04,WUHU21623XXSP,2013-03-23 01:05:00,
2013-03-22 21:10:00,30.0,25.5,29.92,West,270,10.3,11.9,83,0.00,,,0.04,WUHU21623XXSP,2013-03-23 01:10:00,
2013-03-22 21:15:00,30.0,25.5,29.92,WNW,292,7.4,11.9,83,0.00,,,0.04,WUHU21623XXSP,2013-03-23 01:15:00,
2013-03-22 21:20:00,30.0,25.5,29.92,WNW,292,19.0,19.0,83,0.00,,,0.04,WUHU21623XXSP,2013-03-23 01:20:00,
2013-03-22 21:25:00,30.0,25.2,29.92,West,270,14.3,19.0,82,0.00,,,0.04,WUHU21623XXSP,2013-03-23 01:25:00,
2013-03-22 21:30:00,30.0,25.2,29.92,West,270,7.4,15.2,82,0.00,,,0.04,WUHU21623XXSP,2013-03-23 01:30:00,
2013-03-22 21:35:00,30.0,25.2,29.92,WSW,247,11.0,13.0,82,0.00,,,0.04,WUHU21623XXSP,2013-03-23 01:35:00,
2013-03-22 21:40:00,30.0,24.9,29.92,WSW,247,9.2,13.0,81,0.00,,,0.04,WUHU21623XXSP,2013-03-23 01:40:00,
2013-03-22 21:45:00,30.0,24.9,29.92,West,270,4.3,14.5,81,0.00,,,0.04,WUHU21623XXSP,2013-03-23 01:45:00,
2013-03-22 21:50:00,30.0,25.2,29.92,West,270,4.9,14.5,82,0.00,,,0.04,WUHU21623XXSP,2013-03-23 01:50:00,
2013-03-22 21:55:00,30.0,25.2,29.92,WNW,292,11.9,15.2,82,0.00,,,0.04,WUHU21623XXSP,2013-03-23 01:55:00,
2013-03-22 22:00:00,29.8,25.0,29.92,West,270,10.7,15.2,82,0.00,,,0.04,WUHU21623XXSP,2013-03-23 02:00:00,
2013-03-22 22:05:00,29.8,25.3,29.93,WSW,247,11.9,13.4,83,0.00,,,0.04,WUHU21623XXSP,2013-03-23 02:05:00,
2013-03-22 22:10:00,29.8,25.0,29.93,WNW,292,7.4,11.9,82,0.00,,,0.04,WUHU21623XXSP,2013-03-23 02:10:00,
2013-03-22 22:15:00,29.8,25.0,29.93,West,270,9.6,9.6,82,0.00,,,0.04,WUHU21623XXSP,2013-03-23 02:15:00,
2013-03-22 22:20:00,29.8,25.0,29.93,WSW,247,4.0,12.5,82,0.00,,,0.04,WUHU21623XXSP,2013-03-23 02:20:00,
2013-03-22 22:25:00,29.8,25.0,29.93,WNW,292,6.5,12.5,82,0.00,,,0.04,WUHU21623XXSP,2013-03-23 02:25:00,
2013-03-22 22:30:00,29.8,25.0,29.93,WNW,292,7.4,13.6,82,0.00,,,0.04,WUHU21623XXSP,2013-03-23 02:30:00,
2013-03-22 22:35:00,29.8,25.0,29.93,West,270,3.4,13.6,82,0.00,,,0.04,WUHU21623XXSP,2013-03-23 02:35:00,
2013-03-22 22:40:00,30.0,25.2,29.93,West,270,5.6,11.4,82,0.00,,,0.04,WUHU21623XXSP,2013-03-23 02:40:00,
2013-03-22 22:45:00,29.8,25.0,29.93,West,270,10.7,11.6,82,0.00,,,0.04,WUHU21623XXSP,2013-03-23 02:45:00,
2013-03-22 22:50:00,29.8,25.0,29.93,West,270,6.7,12.5,82,0.00,,,0.04,WUHU21623XXSP,2013-03-23 02:50:00,
2013-03-22 22:55:00,29.8,25.0,29.93,West,270,9.6,12.5,82,0.00,,,0.04,WUHU21623XXSP,2013-03-23 02:55:00,
2013-03-22 23:00:00,29.8,25.0,29.93,West,270,13.2,15.0,82,0.00,,,0.04,WUHU21623XXSP,2013-03-23 03:00:00,
2013-03-22 23:05:00,29.8,25.0,29.93,West,270,3.6,15.0,82,0.00,,,0.04,WUHU21623XXSP,2013-03-23 03:05:00,
2013-03-22 23:10:00,29.8,25.3,29.93,WSW,247,12.1,12.1,83,0.00,,,0.04,WUHU21623XXSP,2013-03-23 03:10:00,
2013-03-22 23:15:00,29.5,24.9,29.93,WNW,292,7.8,14.5,83,0.00,,,0.04,WUHU21623XXSP,2013-03-23 03:15:00,
2013-03-22 23:20:00,29.5,24.9,29.93,WNW,292,8.1,14.5,83,0.00,,,0.04,WUHU21623XXSP,2013-03-23 03:20:00,
2013-03-22 23:25:00,29.5,25.2,29.93,WSW,247,6.3,13.4,84,0.00,,,0.04,WUHU21623XXSP,2013-03-23 03:25:00,
2013-03-22 23:30:00,29.5,25.2,29.93,West,270,6.9,12.8,84,0.00,,,0.04,WUHU21623XXSP,2013-03-23 03:30:00,
2013-03-22 23:35:00,29.5,25.2,29.93,West,270,8.3,12.8,84,0.00,,,0.04,WUHU21623XXSP,2013-03-23 03:35:00,
2013-03-22 23:40:00,29.5,25.2,29.93,WNW,292,6.3,14.3,84,0.00,,,0.04,WUHU21623XXSP,2013-03-23 03:40:00,
2013-03-22 23:46:00,29.3,25.1,29.93,West,270,8.1,14.3,84,0.00,,,0.04,WUHU21623XXSP,2013-03-23 03:46:00,
2013-03-22 23:51:00,29.5,25.2,29.93,West,270,6.3,11.4,84,0.00,,,0.04,WUHU21623XXSP,2013-03-23 03:51:00,
2013-03-22 23:56:00,29.5,25.2,29.93,WSW,247,8.1,14.1,84,0.00,,,0.04,WUHU21623XXSP,2013-03-23 03:56:00,